Time;durP1;ratioP1;P1;durP2;ratioP2;P2;SDS_P1;SDS_P2;PMS_P1;PMS_P2;Temp;Humidity;BMP_temperature;BMP_pressure;BME280_temperature;BME280_humidity;BME280_pressure;Samples;Min_cycle;Max_cycle;Signal;HPM_P1;HPM_P2
2021/01/12 00:01:44;;;;;;;60.15;33.33;;;;;;;1.08;71.59;100388.67;1630428;87;21037;-69
2021/01/12 00:04:12;;;;;;;64.58;34.03;;;;;;;1.05;72.25;100388.20;1665859;86;21212;-70
2021/01/12 00:06:41;;;;;;;146.37;66.20;;;;;;;0.97;72.66;100393.01;1667221;85;21168;-71
2021/01/12 00:09:09;;;;;;;49.85;28.73;;;;;;;0.91;72.97;100392.88;1665616;85;21165;-69
2021/01/12 00:11:37;;;;;;;45.90;27.05;;;;;;;0.98;72.45;100391.19;1666021;86;21399;-71
2021/01/12 00:14:30;;;;;;;65.22;36.15;;;;;;;1.08;71.79;100393.14;1665940;85;21216;-75
2021/01/12 00:16:36;;;;;;;45.03;26.65;;;;;;;1.19;71.43;100392.78;1663477;85;21053;-74
2021/01/12 00:19:03;;;;;;;43.50;25.32;;;;;;;1.26;70.99;100397.20;1671228;85;21571;-74
2021/01/12 00:21:32;;;;;;;46.70;29.23;;;;;;;1.23;70.67;100396.23;1666060;86;21173;-69
2021/01/12 00:24:00;;;;;;;53.42;29.07;;;;;;;1.26;70.70;100395.05;1665918;86;21216;-69
2021/01/12 00:26:27;;;;;;;43.08;26.75;;;;;;;1.33;70.53;100394.70;1665638;86;21168;-70
2021/01/12 00:28:55;;;;;;;36.90;23.90;;;;;;;1.40;70.22;100395.64;1669143;85;21174;-71
2021/01/12 00:31:23;;;;;;;36.25;18.70;;;;;;;1.45;69.93;100393.30;1672949;85;21134;-68
2021/01/12 00:33:50;;;;;;;38.00;21.62;;;;;;;1.45;69.41;100391.97;1673035;85;21209;-67
2021/01/12 00:36:18;;;;;;;33.73;19.12;;;;;;;1.41;69.28;100396.47;1686073;85;21223;-64
2021/01/12 00:38:45;;;;;;;32.75;21.05;;;;;;;1.41;69.14;100402.59;1666789;85;21224;-67
2021/01/12 00:41:13;;;;;;;32.28;20.02;;;;;;;1.42;69.00;100399.45;1665192;86;21185;-65
2021/01/12 00:43:41;;;;;;;32.15;20.20;;;;;;;1.40;68.91;100402.27;1665078;86;21160;-66
2021/01/12 00:46:09;;;;;;;39.27;24.72;;;;;;;1.35;68.94;100395.33;1665861;86;21181;-65
2021/01/12 00:48:36;;;;;;;28.10;19.20;;;;;;;1.32;69.15;100400.98;1668483;85;21393;-68
2021/01/12 00:51:04;;;;;;;29.95;18.52;;;;;;;1.28;69.31;100399.69;1672700;85;21185;-69
2021/01/12 00:53:33;;;;;;;38.23;22.15;;;;;;;1.28;69.13;100392.56;1673000;85;21205;-66
2021/01/12 00:56:13;;;;;;;56.35;31.33;;;;;;;1.26;69.03;100395.88;1673403;85;21138;-65
2021/01/12 00:58:40;;;;;;;55.43;31.57;;;;;;;1.23;69.55;100390.11;1673392;85;21162;-66
2021/01/12 01:01:08;;;;;;;54.25;29.48;;;;;;;1.19;70.18;100393.60;1667434;86;21226;-64
2021/01/12 01:03:36;;;;;;;39.20;23.90;;;;;;;1.21;70.73;100391.59;1644905;86;21165;-67
2021/01/12 01:06:08;;;;;;;41.63;24.15;;;;;;;1.17;71.25;100388.97;1670902;85;21719;-66
2021/01/12 01:08:36;;;;;;;44.30;27.77;;;;;;;1.13;71.41;100382.86;1633362;87;21191;-72
2021/01/12 01:11:04;;;;;;;51.00;29.45;;;;;;;1.11;71.76;100385.67;1625086;87;21581;-72
2021/01/12 01:13:31;;;;;;;92.72;50.60;;;;;;;1.07;72.08;100387.02;1639693;87;21224;-72
2021/01/12 01:16:00;;;;;;;53.38;32.58;;;;;;;1.04;72.29;100391.84;1607537;88;21219;-72
2021/01/12 01:18:28;;;;;;;74.58;39.50;;;;;;;1.03;72.48;100380.41;1612645;89;21135;-71
2021/01/12 01:20:55;;;;;;;79.70;46.27;;;;;;;0.97;72.75;100374.96;1612509;89;21198;-71
2021/01/12 01:23:26;;;;;;;63.45;33.92;;;;;;;0.96;72.91;100378.63;1614096;88;21214;-72
2021/01/12 01:25:54;;;;;;;59.38;35.13;;;;;;;0.97;72.67;100378.44;1674941;85;21217;-70
2021/01/12 01:28:23;;;;;;;58.65;32.25;;;;;;;0.93;72.52;100386.41;1674621;85;20980;-73
2021/01/12 01:30:53;;;;;;;60.05;31.27;;;;;;;0.91;72.71;100381.80;1674667;85;21016;-71
2021/01/12 01:33:22;;;;;;;58.00;34.30;;;;;;;0.92;72.79;100382.09;1674619;85;21146;-71
2021/01/12 01:35:50;;;;;;;58.40;30.57;;;;;;;0.93;72.82;100382.93;1674546;85;21138;-71
2021/01/12 01:38:18;;;;;;;55.33;34.88;;;;;;;0.87;72.83;100378.64;1642299;87;21476;-70
2021/01/12 01:40:46;;;;;;;47.23;27.10;;;;;;;0.90;72.95;100379.31;1639287;87;21188;-73
2021/01/12 01:43:20;;;;;;;62.38;37.73;;;;;;;0.92;72.89;100375.48;1617528;87;21609;-72
2021/01/12 01:45:48;;;;;;;65.17;37.08;;;;;;;0.94;72.81;100374.82;1637632;87;21225;-71
2021/01/12 01:48:16;;;;;;;68.73;40.03;;;;;;;0.96;72.59;100382.08;1628814;87;21624;-73
2021/01/12 01:50:43;;;;;;;48.10;30.35;;;;;;;0.98;72.57;100380.09;1644084;86;21570;-73
2021/01/12 01:53:11;;;;;;;45.20;29.45;;;;;;;1.03;72.61;100377.77;1638007;86;21177;-72
2021/01/12 01:55:39;;;;;;;43.37;26.47;;;;;;;1.04;72.63;100378.59;1660484;86;21066;-71
2021/01/12 01:58:09;;;;;;;42.50;25.32;;;;;;;0.97;72.48;100376.29;1661083;86;21185;-71
2021/01/12 02:00:37;;;;;;;46.03;28.17;;;;;;;0.91;72.67;100375.17;1666111;86;21144;-73
2021/01/12 02:03:26;;;;;;;41.37;25.97;;;;;;;0.87;72.87;100369.37;1667563;86;21381;-71
2021/01/12 02:05:59;;;;;;;39.67;24.60;;;;;;;0.87;72.69;100373.34;1667714;86;21184;-72
2021/01/12 02:08:30;;;;;;;39.33;23.95;;;;;;;0.86;72.78;100364.27;1669929;85;21044;-72
2021/01/12 02:11:00;;;;;;;31.10;19.40;;;;;;;0.87;72.85;100360.59;1641843;86;21625;-72
2021/01/12 02:13:30;;;;;;;35.37;23.10;;;;;;;0.90;72.87;100364.25;1607330;87;21605;-73
2021/01/12 02:16:00;;;;;;;40.50;22.80;;;;;;;0.92;72.77;100360.91;1599289;89;23634;-71
2021/01/12 02:18:32;;;;;;;39.65;24.67;;;;;;;0.92;72.34;100358.27;1599329;89;21207;-72
2021/01/12 02:21:03;;;;;;;40.30;24.25;;;;;;;0.87;72.30;100353.98;1587070;90;21220;-71
2021/01/12 02:23:37;;;;;;;38.33;20.15;;;;;;;0.84;72.52;100354.33;1598738;87;21141;-72
2021/01/12 02:26:05;;;;;;;43.10;23.75;;;;;;;0.84;72.63;100355.66;1611020;87;21246;-72
2021/01/12 02:28:33;;;;;;;40.57;23.87;;;;;;;0.86;72.52;100357.65;1638903;87;22220;-72
2021/01/12 02:31:02;;;;;;;37.17;24.00;;;;;;;0.91;72.56;100357.96;1612127;87;21180;-72
2021/01/12 02:33:29;;;;;;;37.53;24.57;;;;;;;0.94;72.53;100356.78;1639486;87;21184;-71
2021/01/12 02:35:57;;;;;;;39.90;24.17;;;;;;;0.96;72.54;100354.80;1639364;87;21243;-71
2021/01/12 02:38:26;;;;;;;33.17;20.70;;;;;;;1.03;72.60;100358.40;1627172;87;21181;-72
2021/01/12 02:40:53;;;;;;;32.80;22.13;;;;;;;1.02;72.20;100356.23;1673828;85;21222;-71
2021/01/12 02:43:21;;;;;;;40.10;27.00;;;;;;;0.95;72.30;100356.62;1642054;87;21998;-71
2021/01/12 02:45:49;;;;;;;37.10;24.03;;;;;;;0.95;72.57;100347.35;1641781;87;21025;-72
2021/01/12 02:48:18;;;;;;;33.63;23.07;;;;;;;1.01;72.55;100347.16;1641964;87;21193;-71
2021/01/12 02:50:45;;;;;;;37.77;20.90;;;;;;;0.98;72.53;100350.97;1642475;86;21593;-72
2021/01/12 02:53:13;;;;;;;27.17;17.67;;;;;;;0.98;72.60;100340.87;1641870;87;23547;-72
2021/01/12 02:55:41;;;;;;;31.63;20.70;;;;;;;0.99;72.59;100342.03;1622341;87;21111;-71
2021/01/12 02:58:08;;;;;;;31.43;21.30;;;;;;;0.97;72.07;100344.02;1644617;86;21165;-72
2021/01/12 03:00:35;;;;;;;35.50;23.87;;;;;;;0.95;71.99;100336.76;1667568;85;21062;-71
2021/01/12 03:03:04;;;;;;;24.80;18.80;;;;;;;1.00;71.97;100334.42;1667385;86;21161;-72
2021/01/12 03:05:32;;;;;;;32.90;19.23;;;;;;;1.06;71.75;100328.91;1667517;86;21395;-71
2021/01/12 03:08:00;;;;;;;29.93;19.73;;;;;;;1.08;71.41;100331.73;1667385;86;21217;-72
2021/01/12 03:10:28;;;;;;;31.80;21.67;;;;;;;1.08;71.20;100334.88;1667415;86;21153;-72
2021/01/12 03:12:55;;;;;;;29.93;18.80;;;;;;;1.08;71.14;100327.75;1667450;86;22134;-71
2021/01/12 03:15:23;;;;;;;30.37;20.10;;;;;;;1.07;70.98;100321.30;1646509;85;21127;-71
2021/01/12 03:17:50;;;;;;;27.93;18.10;;;;;;;1.09;70.69;100320.14;1674362;85;22057;-72
2021/01/12 03:20:18;;;;;;;29.63;18.55;;;;;;;1.11;70.20;100324.74;1631481;88;21073;-71
2021/01/12 03:22:45;;;;;;;27.17;18.30;;;;;;;1.06;70.26;100322.28;1631601;88;21167;-72
2021/01/12 03:25:14;;;;;;;21.47;13.87;;;;;;;1.03;70.00;100320.82;1663846;85;21215;-69
2021/01/12 03:27:42;;;;;;;32.80;19.27;;;;;;;1.05;69.47;100320.16;1667524;86;21169;-70
2021/01/12 03:30:13;;;;;;;26.23;18.57;;;;;;;1.04;69.46;100325.63;1667385;86;23542;-71
2021/01/12 03:32:40;;;;;;;25.67;17.73;;;;;;;1.02;69.30;100323.62;1667604;86;21498;-71
2021/01/12 03:35:13;;;;;;;18.93;13.63;;;;;;;1.03;69.38;100315.52;1667652;85;21164;-71
2021/01/12 03:37:40;;;;;;;28.45;16.32;;;;;;;1.09;68.57;100315.33;1670045;85;21186;-69
2021/01/12 03:40:08;;;;;;;21.73;15.40;;;;;;;1.11;68.27;100316.80;1667987;85;21154;-71
2021/01/12 03:42:36;;;;;;;24.77;15.80;;;;;;;1.10;67.65;100305.90;1674566;85;21327;-73
2021/01/12 03:45:05;;;;;;;22.73;14.20;;;;;;;1.08;67.81;100302.59;1673624;85;21043;-72
2021/01/12 03:47:34;;;;;;;22.40;13.10;;;;;;;1.09;67.49;100298.12;1667456;86;21600;-72
2021/01/12 03:50:04;;;;;;;22.90;16.27;;;;;;;1.06;67.34;100294.47;1667463;86;21133;-72
2021/01/12 03:52:32;;;;;;;21.30;13.80;;;;;;;1.04;67.36;100286.72;1667214;86;21177;-71
2021/01/12 03:55:00;;;;;;;26.47;16.00;;;;;;;1.04;67.17;100288.05;1656853;86;21461;-71
2021/01/12 03:57:28;;;;;;;23.27;14.67;;;;;;;1.00;67.19;100283.27;1667136;85;21160;-71
2021/01/12 03:59:55;;;;;;;20.80;15.10;;;;;;;0.97;67.37;100284.92;1671206;85;21153;-73
2021/01/12 04:02:24;;;;;;;20.83;13.63;;;;;;;0.94;67.38;100287.92;1667905;86;21170;-70
2021/01/12 04:04:55;;;;;;;23.27;14.90;;;;;;;0.88;67.43;100285.47;1668021;86;21168;-70
2021/01/12 04:07:23;;;;;;;20.17;14.20;;;;;;;0.83;67.46;100283.34;1667713;86;22680;-70
2021/01/12 04:09:51;;;;;;;20.90;12.30;;;;;;;0.79;66.85;100279.39;1667880;86;21249;-71
2021/01/12 04:12:19;;;;;;;22.33;13.67;;;;;;;0.80;67.04;100274.43;1667909;86;21635;-69
2021/01/12 04:14:47;;;;;;;20.40;12.70;;;;;;;0.78;67.26;100274.26;1668529;85;21140;-69
2021/01/12 04:17:15;;;;;;;20.13;12.93;;;;;;;0.75;66.97;100275.94;1636626;86;21232;-69
2021/01/12 04:19:42;;;;;;;19.93;12.73;;;;;;;0.72;67.08;100270.47;1667961;85;21217;-68
2021/01/12 04:22:10;;;;;;;15.83;11.80;;;;;;;0.76;67.15;100274.95;1667978;86;21034;-70
2021/01/12 04:24:37;;;;;;;18.07;13.07;;;;;;;0.78;67.21;100272.44;1656660;85;21142;-69
2021/01/12 04:27:05;;;;;;;19.17;13.07;;;;;;;0.81;67.16;100272.11;1674868;85;21213;-69
2021/01/12 04:29:32;;;;;;;18.67;12.07;;;;;;;0.79;67.20;100266.65;1674274;85;21122;-69
2021/01/12 04:32:00;;;;;;;16.17;11.10;;;;;;;0.79;67.26;100262.68;1667230;86;21410;-70
2021/01/12 04:34:28;;;;;;;19.57;12.73;;;;;;;0.76;66.06;100264.36;1658344;85;21630;-71
2021/01/12 04:36:57;;;;;;;19.90;13.80;;;;;;;0.78;66.32;100259.20;1634074;87;21674;-70
2021/01/12 04:39:26;;;;;;;18.70;12.67;;;;;;;0.86;66.55;100261.00;1640941;87;21196;-70
2021/01/12 04:41:54;;;;;;;20.40;12.90;;;;;;;0.94;66.68;100263.59;1649196;87;21216;-71
2021/01/12 04:44:22;;;;;;;19.90;15.43;;;;;;;0.98;66.52;100258.77;1649233;87;21376;-71
2021/01/12 04:46:51;;;;;;;21.20;15.17;;;;;;;0.98;66.44;100262.74;1665575;86;21225;-70
2021/01/12 04:49:19;;;;;;;21.47;13.40;;;;;;;0.97;66.25;100260.59;1657061;86;21586;-71
2021/01/12 04:51:46;;;;;;;22.90;11.20;;;;;;;0.94;66.17;100255.66;1632555;87;21176;-71
2021/01/12 04:54:14;;;;;;;18.47;14.10;;;;;;;0.87;66.29;100247.57;1640756;87;21164;-72
2021/01/12 04:56:42;;;;;;;22.70;14.60;;;;;;;0.82;66.55;100251.23;1640430;87;21233;-71
2021/01/12 04:59:10;;;;;;;22.87;14.73;;;;;;;0.80;66.71;100246.63;1636841;87;21961;-70
2021/01/12 05:01:38;;;;;;;15.97;11.57;;;;;;;0.83;66.95;100255.54;1636850;87;21582;-69
2021/01/12 05:04:06;;;;;;;19.93;12.73;;;;;;;0.90;66.75;100249.55;1606312;88;21266;-71
2021/01/12 05:06:34;;;;;;;25.63;16.57;;;;;;;0.94;66.63;100246.88;1673768;85;21146;-70
2021/01/12 05:09:02;;;;;;;20.13;14.10;;;;;;;0.94;66.64;100250.36;1622309;86;21368;-71
2021/01/12 05:11:34;;;;;;;30.00;19.90;;;;;;;0.90;66.61;100249.06;1667399;86;21141;-71
2021/01/12 05:14:09;;;;;;;22.23;15.27;;;;;;;0.92;66.78;100247.54;1667412;86;21195;-71
2021/01/12 05:16:53;;;;;;;20.73;15.10;;;;;;;0.87;66.56;100242.27;1673662;85;21181;-71
2021/01/12 05:19:29;;;;;;;20.80;12.63;;;;;;;0.77;66.86;100236.36;1674548;85;21186;-71
2021/01/12 05:22:03;;;;;;;24.67;13.67;;;;;;;0.71;66.83;100234.93;1668519;85;21346;-71
2021/01/12 05:24:43;;;;;;;21.00;12.77;;;;;;;0.71;66.92;100245.02;1667375;86;21017;-71
2021/01/12 05:27:11;;;;;;;17.47;12.20;;;;;;;0.69;67.06;100240.87;1667287;86;21149;-71
2021/01/12 05:29:39;;;;;;;23.70;16.77;;;;;;;0.71;67.19;100245.02;1667457;86;21476;-70
2021/01/12 05:32:11;;;;;;;28.90;17.27;;;;;;;0.69;67.22;100244.36;1667519;86;21612;-72
2021/01/12 05:34:39;;;;;;;25.97;17.27;;;;;;;0.68;67.38;100247.16;1668361;85;21391;-72
2021/01/12 05:37:08;;;;;;;27.77;16.10;;;;;;;0.60;67.80;100242.75;1642036;87;21201;-72
2021/01/12 05:39:41;;;;;;;26.07;15.90;;;;;;;0.61;68.02;100241.75;1639395;87;21645;-72
2021/01/12 05:42:10;;;;;;;30.70;18.83;;;;;;;0.65;68.51;100246.20;1639835;87;21212;-70
2021/01/12 05:44:41;;;;;;;25.90;17.03;;;;;;;0.64;68.78;100244.54;1637168;87;21646;-71
2021/01/12 05:47:14;;;;;;;19.47;14.60;;;;;;;0.58;69.37;100239.44;1667498;86;21294;-72
2021/01/12 05:49:45;;;;;;;25.55;17.87;;;;;;;0.53;69.68;100238.33;1631702;88;21062;-72
2021/01/12 05:52:13;;;;;;;25.07;15.60;;;;;;;0.45;70.02;100237.84;1631525;87;21582;-72
2021/01/12 05:55:04;;;;;;;22.40;14.57;;;;;;;0.43;70.27;100247.79;1609879;88;21152;-71
2021/01/12 05:57:35;;;;;;;27.80;16.63;;;;;;;0.40;70.62;100251.58;1649545;85;21266;-72
2021/01/12 06:00:06;;;;;;;27.60;18.83;;;;;;;0.49;70.69;100259.48;1631736;88;21209;-71
2021/01/12 06:02:38;;;;;;;23.07;16.00;;;;;;;0.51;70.84;100260.16;1631679;88;21228;-70
2021/01/12 06:05:07;;;;;;;26.70;18.17;;;;;;;0.57;71.05;100259.48;1631556;87;21205;-71
2021/01/12 06:07:35;;;;;;;22.13;12.23;;;;;;;0.57;71.30;100256.33;1631505;88;21256;-70
2021/01/12 06:10:02;;;;;;;20.60;13.97;;;;;;;0.55;71.85;100269.39;1631621;88;21148;-71
2021/01/12 06:12:31;;;;;;;25.03;16.63;;;;;;;0.50;72.25;100263.78;1638237;86;21407;-69
2021/01/12 06:14:58;;;;;;;29.03;16.80;;;;;;;0.41;72.77;100261.67;1644809;86;21157;-71
2021/01/12 06:17:31;;;;;;;29.03;16.17;;;;;;;0.46;72.85;100265.13;1669921;85;21623;-70
2021/01/12 06:20:06;;;;;;;24.23;16.12;;;;;;;0.48;73.12;100265.80;1673696;85;24263;-70
2021/01/12 06:22:37;;;;;;;21.63;14.70;;;;;;;0.47;73.17;100262.81;1666435;86;21150;-69
2021/01/12 06:25:06;;;;;;;23.30;17.17;;;;;;;0.43;73.51;100261.81;1672562;85;21608;-69
2021/01/12 06:27:35;;;;;;;20.00;12.70;;;;;;;0.40;73.65;100270.60;1674503;85;21190;-71
2021/01/12 06:30:07;;;;;;;21.97;15.17;;;;;;;0.37;74.00;100261.69;1674601;85;21020;-70
2021/01/12 06:32:35;;;;;;;25.10;15.43;;;;;;;0.31;74.16;100261.04;1674735;85;21317;-71
2021/01/12 06:35:07;;;;;;;26.37;15.73;;;;;;;0.33;74.38;100268.33;1674699;85;21615;-69
2021/01/12 06:37:38;;;;;;;25.13;14.00;;;;;;;0.29;74.48;100263.84;1674628;85;21395;-70
2021/01/12 06:40:08;;;;;;;25.03;14.00;;;;;;;0.35;74.50;100263.17;1668754;85;21183;-70
2021/01/12 06:42:37;;;;;;;21.63;15.63;;;;;;;0.38;74.64;100262.02;1667564;86;21657;-70
2021/01/12 06:45:07;;;;;;;24.30;16.13;;;;;;;0.37;74.76;100257.72;1670103;85;21190;-68
2021/01/12 06:47:37;;;;;;;23.77;15.13;;;;;;;0.34;75.04;100259.36;1672583;85;21599;-69
2021/01/12 06:50:12;;;;;;;22.57;15.40;;;;;;;0.37;75.30;100251.11;1674541;85;21377;-68
2021/01/12 06:52:49;;;;;;;27.03;15.77;;;;;;;0.35;75.55;100258.38;1674567;85;21197;-70
2021/01/12 06:55:19;;;;;;;27.47;16.97;;;;;;;0.32;75.75;100248.98;1673979;85;21611;-70
2021/01/12 06:57:48;;;;;;;25.27;15.87;;;;;;;0.31;76.07;100247.81;1674345;85;21244;-71
2021/01/12 07:00:20;;;;;;;26.23;14.63;;;;;;;0.30;76.15;100247.48;1674587;85;21153;-70
2021/01/12 07:02:57;;;;;;;19.60;13.63;;;;;;;0.29;76.10;100246.65;1674605;85;21215;-71
2021/01/12 07:05:39;;;;;;;25.70;15.17;;;;;;;0.29;76.01;100242.69;1668059;85;21202;-71
2021/01/12 07:08:08;;;;;;;27.97;18.13;;;;;;;0.30;76.02;100249.63;1667687;85;21180;-70
2021/01/12 07:10:44;;;;;;;26.47;16.43;;;;;;;0.34;76.13;100244.81;1667631;86;21642;-69
2021/01/12 07:13:13;;;;;;;24.07;16.27;;;;;;;0.34;76.13;100248.78;1667444;86;21128;-71
2021/01/12 07:15:47;;;;;;;21.97;13.93;;;;;;;0.30;76.34;100244.34;1667502;86;21614;-70
2021/01/12 07:18:21;;;;;;;22.03;15.33;;;;;;;0.26;76.56;100245.68;1673668;85;22141;-70
2021/01/12 07:20:50;;;;;;;29.43;16.23;;;;;;;0.25;76.79;100245.84;1613042;88;21590;-70
2021/01/12 07:23:19;;;;;;;27.80;16.07;;;;;;;0.18;77.38;100248.36;1597389;87;21521;-70
2021/01/12 07:25:47;;;;;;;27.67;18.53;;;;;;;0.19;77.46;100242.05;1636825;87;21177;-70
2021/01/12 07:28:20;;;;;;;28.97;19.00;;;;;;;0.16;77.84;100238.92;1636765;87;21241;-71
2021/01/12 07:30:52;;;;;;;24.60;17.33;;;;;;;0.20;77.95;100234.94;1625044;87;21162;-71
2021/01/12 07:33:22;;;;;;;24.10;15.68;;;;;;;0.21;78.24;100240.56;1667598;86;21014;-71
2021/01/12 07:35:56;;;;;;;17.60;11.33;;;;;;;0.24;78.31;100238.92;1668748;85;21138;-70
2021/01/12 07:38:27;;;;;;;24.57;17.00;;;;;;;0.25;78.62;100236.09;1674473;85;21184;-70
2021/01/12 07:40:57;;;;;;;25.33;16.80;;;;;;;0.21;78.61;100233.45;1642004;86;21784;-71
2021/01/12 07:43:26;;;;;;;27.40;18.47;;;;;;;0.22;78.55;100238.25;1639185;87;21204;-72
2021/01/12 07:45:56;;;;;;;26.80;16.23;;;;;;;0.19;78.67;100238.08;1630517;87;21042;-73
2021/01/12 07:48:23;;;;;;;31.87;16.43;;;;;;;0.16;78.73;100229.66;1631528;88;21164;-70
2021/01/12 07:50:53;;;;;;;23.77;14.60;;;;;;;0.17;78.82;100230.00;1631691;88;21161;-70
2021/01/12 07:53:21;;;;;;;26.70;17.63;;;;;;;0.20;78.54;100225.19;1631514;88;21510;-71
2021/01/12 07:55:49;;;;;;;28.87;17.73;;;;;;;0.19;78.40;100223.53;1642077;85;21181;-69
2021/01/12 07:58:18;;;;;;;11.13;6.17;;;;;;;0.25;78.39;100223.35;1683982;84;21078;-70
2021/01/12 08:00:49;;;;;;;25.53;17.37;;;;;;;0.25;78.37;100230.80;1674732;85;21611;-70
2021/01/12 08:03:26;;;;;;;25.67;17.33;;;;;;;0.21;78.53;100229.48;1669748;84;21217;-70
2021/01/12 08:06:00;;;;;;;28.77;17.37;;;;;;;0.17;79.06;100228.19;1636499;87;21210;-71
2021/01/12 08:08:28;;;;;;;27.73;15.90;;;;;;;0.18;79.20;100226.37;1667803;86;21229;-70
2021/01/12 08:10:56;;;;;;;26.47;17.40;;;;;;;0.16;79.42;100221.23;1672324;85;21189;-70
2021/01/12 08:13:23;;;;;;;28.53;16.33;;;;;;;0.21;79.11;100223.37;1674943;85;21106;-72
2021/01/12 08:15:51;;;;;;;25.20;13.60;;;;;;;0.23;79.07;100230.66;1675042;85;21217;-72
2021/01/12 08:18:22;;;;;;;27.07;18.57;;;;;;;0.18;78.99;100220.58;1675023;85;22135;-72
2021/01/12 08:20:54;;;;;;;27.30;15.53;;;;;;;0.15;78.79;100225.36;1642603;87;21160;-71
2021/01/12 08:23:22;;;;;;;26.70;14.53;;;;;;;0.11;78.66;100224.06;1639201;87;21184;-71
2021/01/12 08:25:50;;;;;;;22.23;13.33;;;;;;;0.06;79.00;100225.89;1639291;87;21192;-70
2021/01/12 08:28:18;;;;;;;32.63;20.77;;;;;;;0.05;78.97;100225.55;1639373;87;21650;-70
2021/01/12 08:30:46;;;;;;;23.77;14.40;;;;;;;0.07;78.98;100228.04;1625595;87;22156;-69
2021/01/12 08:33:38;;;;;;;23.83;17.20;;;;;;;0.07;79.10;100225.39;1667846;86;21136;-71
2021/01/12 08:36:12;;;;;;;32.90;19.15;;;;;;;0.04;79.24;100228.39;1668179;85;21213;-70
2021/01/12 08:38:44;;;;;;;27.48;16.73;;;;;;;-0.04;79.05;100223.44;1668218;86;21642;-70
2021/01/12 08:41:11;;;;;;;24.43;14.10;;;;;;;-0.04;78.92;100219.95;1669079;85;21618;-69
2021/01/12 08:43:39;;;;;;;27.23;16.20;;;;;;;-0.04;78.64;100229.22;1675041;85;23541;-71
2021/01/12 08:46:07;;;;;;;36.67;20.50;;;;;;;-0.03;78.51;100217.16;1673618;85;21073;-70
2021/01/12 08:48:35;;;;;;;29.50;16.90;;;;;;;0.02;78.38;100215.33;1667950;86;21160;-70
2021/01/12 08:51:18;;;;;;;27.50;15.70;;;;;;;0.04;77.40;100222.61;1667902;85;21161;-71
2021/01/12 08:53:56;;;;;;;23.55;13.05;;;;;;;0.01;76.94;100213.67;1668044;86;21207;-70
2021/01/12 08:56:23;;;;;;;23.87;14.77;;;;;;;0.12;76.69;100217.78;1648283;86;21603;-71
2021/01/12 08:59:03;;;;;;;34.40;16.80;;;;;;;0.06;76.38;100208.70;1671888;85;21059;-70
2021/01/12 09:01:32;;;;;;;28.40;16.47;;;;;;;0.06;76.39;100199.94;1671398;85;21129;-70
2021/01/12 09:04:17;;;;;;;24.93;16.33;;;;;;;0.07;76.45;100205.07;1647696;86;21140;-71
2021/01/12 09:06:44;;;;;;;35.37;19.80;;;;;;;0.11;76.83;100204.22;1667505;86;21009;-69
2021/01/12 09:09:13;;;;;;;37.47;18.30;;;;;;;0.11;76.90;100205.55;1667362;86;21311;-70
2021/01/12 09:12:01;;;;;;;28.73;15.83;;;;;;;0.05;76.61;100196.47;1667358;86;21172;-71
2021/01/12 09:14:57;;;;;;;32.20;19.27;;;;;;;0.09;76.72;100192.52;1811204;78;23336;-70
2021/01/12 09:17:25;;;;;;;35.27;20.93;;;;;;;0.04;76.96;100192.20;1787599;80;20982;-71
2021/01/12 09:19:57;;;;;;;35.80;21.17;;;;;;;0.08;76.98;100190.03;1787026;80;22347;-73
2021/01/12 09:22:33;;;;;;;33.40;21.20;;;;;;;0.03;77.09;100186.58;1786827;80;21046;-71
2021/01/12 09:25:07;;;;;;;28.13;14.83;;;;;;;0.02;77.22;100186.24;1785801;80;20995;-69
2021/01/12 09:27:36;;;;;;;;;;;;;;;0.00;77.01;100183.76;1786242;80;21614;-70
2021/01/12 09:30:05;;;;;;;32.40;18.10;;;;;;;0.02;77.15;100184.09;1786754;80;20252;-69
2021/01/12 09:32:34;;;;;;;32.53;17.97;;;;;;;0.03;77.29;100180.46;1798639;79;21382;-70
2021/01/12 09:35:05;;;;;;;27.40;16.87;;;;;;;0.00;76.89;100178.47;1799017;79;21039;-69
2021/01/12 09:37:33;;;;;;;28.03;15.90;;;;;;;0.01;76.56;100171.37;1746537;80;21066;-72
2021/01/12 09:40:01;;;;;;;26.87;18.57;;;;;;;0.01;75.66;100171.37;1776364;80;21740;-73
2021/01/12 09:42:29;;;;;;;23.23;16.10;;;;;;;0.05;75.62;100161.30;1769981;80;21143;-71
2021/01/12 09:44:59;;;;;;;32.13;18.00;;;;;;;-0.01;75.91;100167.59;1739846;81;21670;-71
2021/01/12 09:47:32;;;;;;;26.73;17.60;;;;;;;-0.04;76.30;100151.22;1774818;78;21027;-69
2021/01/12 09:50:06;;;;;;;26.20;18.27;;;;;;;-0.05;76.49;100147.75;1774877;80;20972;-70
2021/01/12 09:52:34;;;;;;;24.10;15.03;;;;;;;-0.05;76.15;100139.81;1774732;80;21109;-70
2021/01/12 09:55:03;;;;;;;29.20;16.80;;;;;;;-0.07;76.06;100124.64;1774676;80;21153;-71
2021/01/12 09:57:36;;;;;;;21.90;12.80;;;;;;;-0.04;75.97;100128.75;1777558;79;21186;-71
2021/01/12 10:00:10;;;;;;;25.13;14.50;;;;;;;-0.09;75.50;100130.59;1770912;81;21023;-69
2021/01/12 10:02:40;;;;;;;29.13;13.47;;;;;;;-0.11;75.23;100126.48;1770124;81;21053;-70
2021/01/12 10:05:29;;;;;;;21.20;12.13;;;;;;;-0.11;74.72;100114.09;1744113;81;21592;-72
2021/01/12 10:07:56;;;;;;;16.23;10.37;;;;;;;-0.12;74.07;100111.61;1640810;87;21574;-72
2021/01/12 10:10:25;;;;;;;23.00;12.40;;;;;;;-0.11;73.21;100110.12;1640680;87;22364;-71
2021/01/12 10:12:54;;;;;;;24.67;14.73;;;;;;;-0.07;72.84;100098.20;1662472;86;21098;-71
2021/01/12 10:15:24;;;;;;;25.33;14.83;;;;;;;-0.03;72.66;100093.39;1661656;85;21188;-71
2021/01/12 10:17:52;;;;;;;21.87;12.50;;;;;;;0.01;72.71;100097.33;1629033;86;21177;-71
2021/01/12 10:20:21;;;;;;;25.90;11.63;;;;;;;0.08;72.17;100086.91;1647117;86;21166;-71
2021/01/12 10:22:53;;;;;;;22.90;15.90;;;;;;;0.07;71.95;100081.28;1647147;87;21222;-72
2021/01/12 10:25:34;;;;;;;21.00;14.60;;;;;;;0.09;72.18;100080.13;1646795;87;21239;-72
2021/01/12 10:28:04;;;;;;;19.50;13.17;;;;;;;0.12;72.00;100074.48;1646721;87;21235;-72
2021/01/12 10:30:33;;;;;;;27.10;14.97;;;;;;;0.11;71.82;100069.36;1646646;87;21214;-70
2021/01/12 10:33:01;;;;;;;23.67;13.37;;;;;;;0.14;71.92;100066.39;1621408;87;21220;-72
2021/01/12 10:35:29;;;;;;;16.97;10.97;;;;;;;0.18;71.66;100063.72;1620244;88;21465;-71
2021/01/12 10:37:57;;;;;;;18.47;13.00;;;;;;;0.10;70.91;100058.45;1619976;88;21224;-72
2021/01/12 10:40:26;;;;;;;22.67;12.47;;;;;;;0.07;71.05;100050.37;1627896;87;21155;-71
2021/01/12 10:42:55;;;;;;;14.80;10.13;;;;;;;0.05;70.91;100040.98;1628764;88;21231;-71
2021/01/12 10:45:26;;;;;;;17.17;11.27;;;;;;;0.04;70.80;100038.02;1628428;88;21180;-72
2021/01/12 10:47:56;;;;;;;19.37;12.83;;;;;;;0.01;70.86;100035.20;1627692;88;21392;-72
2021/01/12 10:50:24;;;;;;;18.23;11.43;;;;;;;0.00;70.87;100026.97;1612786;88;21216;-71
2021/01/12 10:52:51;;;;;;;18.60;12.00;;;;;;;-0.02;70.61;100028.45;1627741;88;21204;-71
2021/01/12 10:55:21;;;;;;;18.90;13.03;;;;;;;0.05;70.48;100025.12;1601841;89;21173;-71
2021/01/12 10:57:49;;;;;;;18.83;12.80;;;;;;;0.14;70.67;100020.94;1598520;89;21606;-72
2021/01/12 11:00:20;;;;;;;18.90;12.30;;;;;;;0.21;70.57;100016.58;1623156;87;22342;-70
2021/01/12 11:02:49;;;;;;;18.70;11.90;;;;;;;0.26;70.53;100012.08;1613759;87;21217;-70
2021/01/12 11:05:18;;;;;;;21.17;14.20;;;;;;;0.30;70.57;100010.73;1625888;87;21102;-70
2021/01/12 11:07:47;;;;;;;25.13;15.43;;;;;;;0.28;70.59;100019.36;1626978;87;21181;-71
2021/01/12 11:10:15;;;;;;;20.13;13.13;;;;;;;0.23;70.76;100007.98;1645368;87;21201;-69
2021/01/12 11:12:47;;;;;;;13.60;8.77;;;;;;;0.25;70.74;100011.75;1644705;87;21550;-68
2021/01/12 11:15:16;;;;;;;19.05;11.83;;;;;;;0.20;70.61;100008.31;1620063;87;21641;-68
2021/01/12 11:17:46;;;;;;;19.17;11.83;;;;;;;0.13;70.47;100011.84;1646290;87;21156;-70
2021/01/12 11:20:21;;;;;;;17.30;11.53;;;;;;;0.17;70.50;100005.20;1627850;88;21185;-68
2021/01/12 11:22:55;;;;;;;20.47;13.77;;;;;;;0.24;70.62;100006.96;1869115;76;22693;-65
2021/01/12 11:25:24;;;;;;;22.20;13.80;;;;;;;0.20;70.69;100001.70;1850047;77;20974;-68
2021/01/12 11:27:53;;;;;;;30.10;13.27;;;;;;;0.21;70.56;100007.81;1854916;77;21330;-68
2021/01/12 11:30:23;;;;;;;16.33;10.13;;;;;;;0.19;70.61;100007.19;1854501;77;21005;-71